Time;durP1;ratioP1;P1;durP2;ratioP2;P2;SDS_P1;SDS_P2;PMS_P1;PMS_P2;Temp;Humidity;BMP_temperature;BMP_pressure;BME280_temperature;BME280_humidity;BME280_pressure;Samples;Min_cycle;Max_cycle;Signal;HPM_P1;HPM_P2
2022/09/22 00:01:37;;;;;;;21.83;8.90;;;10.40;99.90;;;;;;4952373;28;20271;-71
2022/09/22 00:04:05;;;;;;;19.03;9.10;;;10.40;99.90;;;;;;4983477;28;20173;-71
2022/09/22 00:06:52;;;;;;;23.80;9.20;;;10.40;99.90;;;;;;4984100;28;20516;-71
2022/09/22 00:09:20;;;;;;;17.30;8.40;;;10.40;99.90;;;;;;4952360;28;20195;-72
2022/09/22 00:11:48;;;;;;;14.53;9.13;;;10.40;99.90;;;;;;4952451;28;20184;-71
2022/09/22 00:14:21;;;;;;;16.97;8.53;;;10.50;99.90;;;;;;4952472;28;20187;-71
2022/09/22 00:16:53;;;;;;;19.10;8.70;;;10.40;99.90;;;;;;4951531;28;20285;-71
2022/09/22 00:19:25;;;;;;;15.73;8.97;;;10.40;99.90;;;;;;4952338;28;20169;-71
2022/09/22 00:21:52;;;;;;;14.83;8.13;;;10.40;99.90;;;;;;4952409;28;20214;-71
2022/09/22 00:24:21;;;;;;;15.77;9.13;;;10.30;99.90;;;;;;4952325;28;20172;-70
2022/09/22 00:26:47;;;;;;;14.13;8.83;;;10.30;99.90;;;;;;4952433;28;20177;-71
2022/09/22 00:29:14;;;;;;;15.63;8.50;;;10.20;99.90;;;;;;4983207;28;20172;-71
2022/09/22 00:31:41;;;;;;;15.10;9.23;;;10.20;99.90;;;;;;4951960;28;20196;-71
2022/09/22 00:34:10;;;;;;;14.93;8.93;;;10.20;99.90;;;;;;4952185;28;20259;-71
2022/09/22 00:36:35;;;;;;;14.07;8.87;;;10.20;99.90;;;;;;4982892;28;20259;-71
2022/09/22 00:39:01;;;;;;;14.10;8.80;;;10.30;99.90;;;;;;4952229;28;20200;-71
2022/09/22 00:41:34;;;;;;;12.80;8.77;;;10.30;99.90;;;;;;4952272;28;20263;-71
2022/09/22 00:44:22;;;;;;;18.13;9.80;;;10.20;99.90;;;;;;4951910;28;20173;-71
2022/09/22 00:47:19;;;;;;;13.37;9.20;;;10.20;99.90;;;;;;4951608;28;20248;-71
2022/09/22 00:50:12;;;;;;;15.90;9.47;;;10.10;99.90;;;;;;4952065;28;20180;-71
2022/09/22 00:52:56;;;;;;;13.17;9.10;;;10.10;99.90;;;;;;4951939;28;20633;-71
2022/09/22 00:55:28;;;;;;;15.90;9.10;;;10.10;99.90;;;;;;4951654;28;20762;-71
2022/09/22 00:57:55;;;;;;;11.80;9.37;;;10.00;99.90;;;;;;4953416;28;20180;-71
2022/09/22 01:00:21;;;;;;;12.03;9.30;;;10.00;99.90;;;;;;4954876;28;20168;-70
2022/09/22 01:02:55;;;;;;;14.13;8.77;;;10.00;99.90;;;;;;4955343;28;20176;-71
2022/09/22 01:05:23;;;;;;;14.67;9.37;;;10.00;99.90;;;;;;4955110;29;20177;-71
2022/09/22 01:07:49;;;;;;;13.70;9.20;;;10.00;99.90;;;;;;4953770;28;20226;-70
2022/09/22 01:10:15;;;;;;;15.23;9.50;;;10.00;99.90;;;;;;4986116;28;20223;-70
2022/09/22 01:13:09;;;;;;;15.07;9.43;;;9.90;99.90;;;;;;4955030;28;20177;-70
2022/09/22 01:15:46;;;;;;;14.07;9.30;;;10.00;99.90;;;;;;4954587;28;20235;-70
2022/09/22 01:18:47;;;;;;;15.77;9.93;;;9.90;99.90;;;;;;4954607;28;20252;-71
2022/09/22 01:21:20;;;;;;;12.47;8.77;;;9.90;99.90;;;;;;4986037;28;20185;-71
2022/09/22 01:24:15;;;;;;;16.50;9.00;;;9.90;99.90;;;;;;4954948;29;20172;-71
2022/09/22 01:27:07;;;;;;;13.80;9.30;;;9.80;99.90;;;;;;4954869;28;20259;-71
2022/09/22 01:29:50;;;;;;;12.83;9.17;;;9.80;99.90;;;;;;4954487;28;20531;-71
2022/09/22 01:32:32;;;;;;;17.60;9.73;;;9.80;99.90;;;;;;4954762;29;20169;-71
2022/09/22 01:35:10;;;;;;;16.13;9.77;;;9.80;99.90;;;;;;4954713;28;20260;-70
2022/09/22 01:38:02;;;;;;;13.70;9.87;;;9.80;99.90;;;;;;4953709;28;20559;-71
2022/09/22 01:40:43;;;;;;;18.67;10.03;;;9.80;99.90;;;;;;4954764;28;20184;-71
2022/09/22 01:43:34;;;;;;;13.63;10.60;;;9.80;99.90;;;;;;4952923;28;20195;-70
2022/09/22 01:46:05;;;;;;;17.80;10.40;;;9.80;99.90;;;;;;4954700;28;20173;-70
2022/09/22 01:48:34;;;;;;;17.87;10.40;;;9.70;99.90;;;;;;4953382;28;20263;-71
2022/09/22 01:51:07;;;;;;;13.23;9.33;;;9.70;99.90;;;;;;4953173;28;20177;-70
2022/09/22 01:53:41;;;;;;;15.73;9.93;;;9.80;99.90;;;;;;4954379;28;20165;-71
2022/09/22 01:56:09;;;;;;;24.80;11.00;;;9.70;99.90;;;;;;4952965;29;20679;-71
2022/09/22 01:58:39;;;;;;;33.93;11.30;;;9.70;99.90;;;;;;4954460;28;20165;-71
2022/09/22 02:01:22;;;;;;;33.53;11.70;;;9.60;99.90;;;;;;4953107;28;20568;-71
2022/09/22 02:03:55;;;;;;;32.20;11.30;;;9.60;99.90;;;;;;4954268;28;20175;-71
2022/09/22 02:06:38;;;;;;;34.67;11.23;;;9.60;99.90;;;;;;4969386;28;20180;-71
2022/09/22 02:09:06;;;;;;;28.37;10.90;;;9.60;99.90;;;;;;4953458;28;20183;-71
2022/09/22 02:11:32;;;;;;;31.97;11.60;;;9.50;99.90;;;;;;4954571;28;20169;-70
2022/09/22 02:13:59;;;;;;;20.03;10.23;;;9.50;99.90;;;;;;4953888;28;20196;-70
2022/09/22 02:16:26;;;;;;;27.40;11.17;;;9.50;99.90;;;;;;4953715;28;20197;-70
2022/09/22 02:18:58;;;;;;;24.47;10.00;;;9.40;99.90;;;;;;4954279;28;20189;-70
2022/09/22 02:21:26;;;;;;;19.70;10.33;;;9.40;99.90;;;;;;4954031;28;20207;-71
2022/09/22 02:23:52;;;;;;;17.57;10.43;;;9.40;99.90;;;;;;4954088;28;20195;-71
2022/09/22 02:26:22;;;;;;;16.87;10.40;;;9.40;99.90;;;;;;4953874;28;20172;-70
2022/09/22 02:29:01;;;;;;;20.77;10.47;;;9.40;99.90;;;;;;4953970;28;20599;-70
2022/09/22 02:31:29;;;;;;;14.33;9.97;;;9.40;99.90;;;;;;4954070;28;20177;-70
2022/09/22 02:33:56;;;;;;;19.07;9.50;;;9.40;99.90;;;;;;4953876;28;20169;-70
2022/09/22 02:36:43;;;;;;;16.87;9.70;;;9.40;99.90;;;;;;4952569;28;20684;-70
2022/09/22 02:39:18;;;;;;;12.13;9.47;;;9.40;99.90;;;;;;4953815;28;20625;-70
2022/09/22 02:42:19;;;;;;;13.23;9.43;;;9.40;99.90;;;;;;4953179;28;20255;-70
2022/09/22 02:44:50;;;;;;;11.03;9.37;;;9.40;99.90;;;;;;4953763;29;20338;-71
2022/09/22 02:47:31;;;;;;;13.87;9.10;;;9.40;99.90;;;;;;4984986;28;20176;-71
2022/09/22 02:49:57;;;;;;;19.07;9.30;;;9.30;99.90;;;;;;4952412;28;20624;-71
2022/09/22 02:52:24;;;;;;;11.80;9.30;;;9.40;99.90;;;;;;4953407;28;20238;-70
2022/09/22 02:54:53;;;;;;;11.30;9.20;;;9.30;99.90;;;;;;4953616;28;20196;-70
2022/09/22 02:57:19;;;;;;;12.70;9.63;;;9.30;99.90;;;;;;4952036;28;20295;-70
2022/09/22 02:59:45;;;;;;;14.33;9.60;;;9.30;99.90;;;;;;4953296;28;20177;-70
2022/09/22 03:02:11;;;;;;;11.50;9.37;;;9.30;99.90;;;;;;4953460;28;20242;-70
2022/09/22 03:04:36;;;;;;;12.13;9.17;;;9.20;99.90;;;;;;4984109;28;20180;-72
2022/09/22 03:07:02;;;;;;;11.93;9.77;;;9.20;99.90;;;;;;4984420;28;20658;-71
2022/09/22 03:09:27;;;;;;;15.80;10.20;;;9.20;99.90;;;;;;4984317;28;20219;-71
2022/09/22 03:11:53;;;;;;;12.63;9.93;;;9.20;99.90;;;;;;4951758;28;20272;-70
2022/09/22 03:14:19;;;;;;;11.87;9.60;;;9.10;99.90;;;;;;4951766;28;20184;-70
2022/09/22 03:16:44;;;;;;;12.77;9.30;;;9.20;99.90;;;;;;4952324;28;20338;-72
2022/09/22 03:19:10;;;;;;;12.20;9.93;;;9.20;99.90;;;;;;4953221;28;20621;-71
2022/09/22 03:21:36;;;;;;;17.83;10.00;;;9.10;99.90;;;;;;4950734;28;20184;-70
2022/09/22 03:24:02;;;;;;;13.87;9.23;;;9.10;99.90;;;;;;4953052;28;20169;-70
2022/09/22 03:26:28;;;;;;;10.03;9.00;;;9.00;99.90;;;;;;4952708;28;20199;-71
2022/09/22 03:28:54;;;;;;;12.47;9.73;;;9.00;99.90;;;;;;4952729;28;20221;-71
2022/09/22 03:31:19;;;;;;;14.27;9.43;;;9.00;99.90;;;;;;4983703;28;20646;-71
2022/09/22 03:33:45;;;;;;;16.03;10.20;;;9.00;99.90;;;;;;4952828;28;20605;-72
2022/09/22 03:36:12;;;;;;;16.00;9.93;;;9.00;99.90;;;;;;4967488;28;20303;-71
2022/09/22 03:38:38;;;;;;;14.37;10.40;;;9.10;99.90;;;;;;4952797;28;20176;-71
2022/09/22 03:41:04;;;;;;;16.23;10.63;;;9.10;99.90;;;;;;4950942;28;20230;-71
2022/09/22 03:43:29;;;;;;;11.90;9.83;;;9.10;99.90;;;;;;4967034;28;20215;-71
2022/09/22 03:45:59;;;;;;;14.63;10.37;;;9.10;99.90;;;;;;4952513;28;20172;-71
2022/09/22 03:48:26;;;;;;;16.40;10.37;;;9.00;99.90;;;;;;4966985;28;20267;-71
2022/09/22 03:50:52;;;;;;;16.03;10.60;;;9.10;99.90;;;;;;4983602;28;20280;-71
2022/09/22 03:53:18;;;;;;;15.30;10.23;;;9.00;99.90;;;;;;4951534;28;20215;-70
2022/09/22 03:55:43;;;;;;;14.73;10.27;;;9.00;99.90;;;;;;4952164;28;20212;-71
2022/09/22 03:58:09;;;;;;;13.90;9.97;;;8.90;99.90;;;;;;4951912;28;20173;-71
2022/09/22 04:00:34;;;;;;;14.43;10.30;;;8.90;99.90;;;;;;4950639;28;20177;-71
2022/09/22 04:03:00;;;;;;;13.07;10.97;;;8.90;99.90;;;;;;4951906;28;20177;-71
2022/09/22 04:05:26;;;;;;;20.10;10.77;;;8.90;99.90;;;;;;4952092;28;20168;-71
2022/09/22 04:07:52;;;;;;;20.83;11.37;;;9.00;99.90;;;;;;4952185;28;20260;-71
2022/09/22 04:10:18;;;;;;;19.87;11.50;;;8.90;99.90;;;;;;4951760;28;20179;-70
2022/09/22 04:12:44;;;;;;;17.40;11.17;;;9.00;99.90;;;;;;4950902;28;20175;-71
2022/09/22 04:15:10;;;;;;;30.23;10.53;;;8.90;99.90;;;;;;4951733;28;20172;-70
2022/09/22 04:17:38;;;;;;;17.33;11.60;;;8.90;99.90;;;;;;4951573;28;20232;-71
2022/09/22 04:20:06;;;;;;;20.97;12.43;;;9.00;99.90;;;;;;4951970;28;20177;-71
2022/09/22 04:22:32;;;;;;;23.17;11.83;;;8.90;99.90;;;;;;4951707;28;20181;-71
2022/09/22 04:24:57;;;;;;;19.40;11.80;;;8.90;99.90;;;;;;4951708;28;20675;-71
2022/09/22 04:27:23;;;;;;;20.77;12.03;;;8.90;99.90;;;;;;4951641;28;20229;-71
2022/09/22 04:29:49;;;;;;;21.57;11.20;;;8.80;99.90;;;;;;4951834;28;20173;-70
2022/09/22 04:32:15;;;;;;;16.70;11.77;;;8.80;99.90;;;;;;4952048;28;20227;-71
2022/09/22 04:34:41;;;;;;;23.73;11.80;;;8.80;99.90;;;;;;4955463;28;20226;-71
2022/09/22 04:37:08;;;;;;;22.60;11.20;;;8.80;99.90;;;;;;4954044;28;20652;-70
2022/09/22 04:39:34;;;;;;;18.47;12.03;;;8.80;99.90;;;;;;4954596;28;20164;-71
2022/09/22 04:41:59;;;;;;;24.20;12.53;;;8.80;99.90;;;;;;4954529;28;20168;-71
2022/09/22 04:44:25;;;;;;;20.17;11.87;;;8.80;99.90;;;;;;4954856;28;20571;-70
2022/09/22 04:46:51;;;;;;;22.10;12.20;;;8.70;99.90;;;;;;4955170;28;20177;-71
2022/09/22 04:49:17;;;;;;;26.63;13.80;;;8.80;99.90;;;;;;4955317;28;20247;-71
2022/09/22 04:51:43;;;;;;;20.47;12.17;;;8.70;99.90;;;;;;4954392;28;20180;-71
2022/09/22 04:54:09;;;;;;;23.10;12.50;;;8.70;99.90;;;;;;4954361;28;20180;-70
2022/09/22 04:56:34;;;;;;;28.97;12.90;;;8.70;99.90;;;;;;4954609;28;20686;-70
2022/09/22 04:59:00;;;;;;;27.20;13.10;;;8.60;99.90;;;;;;4954632;28;20183;-70
2022/09/22 05:01:26;;;;;;;30.80;13.47;;;8.70;99.90;;;;;;4954391;28;20169;-70
2022/09/22 05:03:52;;;;;;;22.90;12.73;;;8.70;99.90;;;;;;4954681;28;20222;-71
2022/09/22 05:06:18;;;;;;;30.77;12.90;;;8.70;99.90;;;;;;4954041;28;20201;-71
2022/09/22 05:08:44;;;;;;;20.47;12.93;;;8.70;99.90;;;;;;4954415;28;20655;-70
2022/09/22 05:11:09;;;;;;;25.20;13.67;;;8.80;99.90;;;;;;4953956;28;20173;-70
2022/09/22 05:13:37;;;;;;;22.93;13.23;;;8.80;99.90;;;;;;4954025;28;20698;-71
2022/09/22 05:16:04;;;;;;;24.90;12.97;;;8.70;99.90;;;;;;4954048;28;20193;-71
2022/09/22 05:18:31;;;;;;;24.33;12.97;;;8.70;99.90;;;;;;4954004;28;20224;-71
2022/09/22 05:20:56;;;;;;;23.00;13.57;;;8.70;99.90;;;;;;4968190;28;20172;-71
2022/09/22 05:23:22;;;;;;;25.70;13.17;;;8.70;99.90;;;;;;4953702;28;20176;-72
2022/09/22 05:25:48;;;;;;;27.73;13.33;;;8.70;99.90;;;;;;4952256;28;20228;-71
2022/09/22 05:28:13;;;;;;;24.60;13.67;;;8.70;99.90;;;;;;4953903;28;20248;-70
2022/09/22 05:30:39;;;;;;;30.70;14.80;;;8.70;99.90;;;;;;4952529;28;20184;-70
2022/09/22 05:33:04;;;;;;;35.90;14.30;;;8.80;99.90;;;;;;4952226;28;20646;-72
2022/09/22 05:35:30;;;;;;;26.00;14.83;;;8.80;99.90;;;;;;4953146;28;20192;-71
2022/09/22 05:37:55;;;;;;;27.47;14.13;;;8.80;99.90;;;;;;4952097;28;20180;-70
2022/09/22 05:40:23;;;;;;;25.60;14.23;;;8.80;99.90;;;;;;4951953;28;20172;-71
2022/09/22 05:42:50;;;;;;;26.40;13.57;;;8.90;99.90;;;;;;4953156;28;20177;-71
2022/09/22 05:45:17;;;;;;;31.03;13.90;;;8.90;99.90;;;;;;4951219;28;20173;-71
2022/09/22 05:47:43;;;;;;;29.60;14.63;;;9.00;99.90;;;;;;4952989;28;20598;-72
2022/09/22 05:50:11;;;;;;;32.50;14.20;;;9.20;99.90;;;;;;4952648;28;20339;-72
2022/09/22 05:52:37;;;;;;;26.60;14.10;;;9.40;99.90;;;;;;4953117;28;20268;-71
2022/09/22 05:55:03;;;;;;;33.93;14.93;;;9.70;99.90;;;;;;4953389;28;20189;-71
2022/09/22 05:57:30;;;;;;;35.20;15.37;;;9.80;99.90;;;;;;4953387;28;20278;-71
2022/09/22 05:59:56;;;;;;;23.73;14.30;;;10.00;99.90;;;;;;4952651;28;20176;-72
2022/09/22 06:02:22;;;;;;;25.17;13.70;;;10.40;99.90;;;;;;4952515;28;20608;-71
2022/09/22 06:04:49;;;;;;;29.83;12.83;;;10.70;99.90;;;;;;4952024;28;20204;-72
2022/09/22 06:07:15;;;;;;;27.53;13.33;;;10.90;99.90;;;;;;4952976;28;20219;-72
2022/09/22 06:09:40;;;;;;;28.37;12.13;;;11.10;99.90;;;;;;4952742;28;20199;-72
2022/09/22 06:12:07;;;;;;;22.53;12.23;;;11.20;99.90;;;;;;4952602;28;20173;-72
2022/09/22 06:14:34;;;;;;;29.60;12.23;;;11.30;99.90;;;;;;4967770;28;20632;-70
2022/09/22 06:16:59;;;;;;;24.83;12.93;;;11.40;99.90;;;;;;4952868;28;20295;-72
2022/09/22 06:19:27;;;;;;;26.83;12.27;;;11.50;92.70;;;;;;4952264;28;20177;-70
2022/09/22 06:21:53;;;;;;;22.50;11.70;;;11.60;90.30;;;;;;4952472;28;20191;-71
2022/09/22 06:24:19;;;;;;;28.43;12.60;;;11.80;78.00;;;;;;4952324;28;20601;-72
2022/09/22 06:26:44;;;;;;;33.73;12.13;;;11.80;65.00;;;;;;4951968;28;20180;-70
2022/09/22 06:29:10;;;;;;;28.27;12.53;;;11.70;61.00;;;;;;4952762;28;20211;-72
2022/09/22 06:31:36;;;;;;;28.50;11.63;;;11.80;70.10;;;;;;4952508;28;20211;-71
2022/09/22 06:34:02;;;;;;;30.17;11.63;;;11.90;63.20;;;;;;4952429;28;20172;-72
2022/09/22 06:36:30;;;;;;;29.53;11.97;;;12.10;55.90;;;;;;4951886;28;20250;-71
2022/09/22 06:39:00;;;;;;;27.27;11.80;;;12.40;49.40;;;;;;4952465;28;20250;-72
2022/09/22 06:41:32;;;;;;;36.50;12.10;;;12.90;31.90;;;;;;4951730;28;20187;-71
2022/09/22 06:43:58;;;;;;;34.03;14.77;;;13.50;16.40;;;;;;4952193;28;20623;-72
2022/09/22 06:46:29;;;;;;;29.53;10.60;;;14.30;1.10;;;;;;4952557;28;20234;-72
2022/09/22 06:48:56;;;;;;;33.70;11.97;;;16.00;1.00;;;;;;4952160;28;20254;-73
2022/09/22 06:51:32;;;;;;;27.97;10.50;;;17.70;1.00;;;;;;4986228;28;20191;-75
2022/09/22 06:54:00;;;;;;;27.27;10.80;;;19.60;99.90;;;;;;4978212;28;20611;-74
2022/09/22 06:56:27;;;;;;;26.00;10.68;;;21.30;1.00;;;;;;5021740;28;20216;-75
2022/09/22 06:58:54;;;;;;;29.63;9.82;;;22.60;99.90;;;;;;5009725;28;20165;-75
2022/09/22 07:01:22;;;;;;;27.63;9.57;;;23.10;99.90;;;;;;5036041;28;20175;-75
2022/09/22 07:03:48;;;;;;;19.83;9.70;;;23.70;1.00;;;;;;5041123;28;20169;-75
2022/09/22 07:06:17;;;;;;;22.95;8.82;;;24.30;1.00;;;;;;5004844;28;20540;-75
2022/09/22 07:08:44;;;;;;;25.73;10.77;;;25.40;99.90;;;;;;4968619;28;20262;-75
2022/09/22 07:11:12;;;;;;;22.63;9.63;;;26.40;99.90;;;;;;5013929;28;20184;-73
2022/09/22 07:13:40;;;;;;;21.05;9.60;;;26.80;99.90;;;;;;4970838;28;20199;-75
2022/09/22 07:16:16;;;;;;;27.77;10.32;;;27.70;99.90;;;;;;4984388;28;20230;-73
2022/09/22 07:18:47;;;;;;;22.00;9.50;;;28.30;99.90;;;;;;4981441;28;20194;-73
2022/09/22 07:21:26;;;;;;;21.42;10.10;;;28.70;99.90;;;;;;4970543;28;20196;-73
2022/09/22 07:23:54;;;;;;;27.15;10.05;;;29.10;99.90;;;;;;4972278;28;20156;-72
2022/09/22 07:26:25;;;;;;;29.17;10.07;;;29.30;99.90;;;;;;4968505;28;20208;-72
2022/09/22 07:28:52;;;;;;;31.38;10.38;;;30.10;99.90;;;;;;4978624;28;20172;-72
2022/09/22 07:31:18;;;;;;;32.90;10.00;;;30.70;99.90;;;;;;4968187;28;20546;-74
2022/09/22 07:33:45;;;;;;;30.48;10.00;;;30.60;99.90;;;;;;4963875;28;20183;-70
2022/09/22 07:36:11;;;;;;;18.42;8.77;;;31.20;99.90;;;;;;4970992;28;20284;-70
2022/09/22 07:38:38;;;;;;;27.88;9.32;;;31.60;99.90;;;;;;4973571;28;20180;-71
2022/09/22 07:41:10;;;;;;;22.80;8.75;;;31.90;99.90;;;;;;4966297;28;20187;-71
2022/09/22 07:43:37;;;;;;;20.40;8.50;;;31.80;99.90;;;;;;4958423;28;20507;-71
2022/09/22 07:46:03;;;;;;;24.33;13.02;;;32.00;99.90;;;;;;4962108;28;20188;-69
2022/09/22 07:48:34;;;;;;;20.17;9.73;;;32.40;99.90;;;;;;4971127;28;20198;-71
2022/09/22 07:51:00;;;;;;;16.73;9.00;;;32.40;98.20;;;;;;4966770;28;20204;-72
2022/09/22 07:53:26;;;;;;;13.93;8.27;;;32.50;94.30;;;;;;4969142;28;20210;-72
2022/09/22 07:55:52;;;;;;;15.07;8.45;;;32.40;90.00;;;;;;4967346;28;20215;-73
2022/09/22 07:58:17;;;;;;;16.27;8.10;;;32.80;78.70;;;;;;4965830;28;20188;-74
2022/09/22 08:00:43;;;;;;;16.52;7.72;;;33.60;69.40;;;;;;4962249;28;20223;-74
2022/09/22 08:03:08;;;;;;;13.35;8.02;;;33.30;60.60;;;;;;5000687;28;20180;-75
2022/09/22 08:05:34;;;;;;;16.40;8.73;;;33.70;58.30;;;;;;5030523;28;20532;-72
2022/09/22 08:08:01;;;;;;;20.23;9.65;;;33.40;48.50;;;;;;4967357;28;20221;-74
2022/09/22 08:10:27;;;;;;;9.52;7.45;;;33.10;50.50;;;;;;4968906;28;20190;-75
2022/09/22 08:12:53;;;;;;;16.38;7.78;;;32.90;50.50;;;;;;4969423;28;20518;-72
2022/09/22 08:15:21;;;;;;;12.25;7.38;;;32.30;48.60;;;;;;4977355;28;20184;-74
2022/09/22 08:17:48;;;;;;;15.82;8.07;;;32.40;48.20;;;;;;4977693;28;20263;-73
2022/09/22 08:20:14;;;;;;;11.88;9.15;;;32.50;45.50;;;;;;4986244;28;20266;-75
2022/09/22 08:22:41;;;;;;;14.55;8.23;;;33.00;42.30;;;;;;5016780;28;20710;-74
2022/09/22 08:25:11;;;;;;;17.00;8.32;;;33.30;39.30;;;;;;5001491;28;20713;-75
2022/09/22 08:27:38;;;;;;;11.40;7.57;;;33.20;32.50;;;;;;4974640;28;20275;-75
2022/09/22 08:30:05;;;;;;;22.17;9.07;;;32.50;34.40;;;;;;4975079;28;20171;-75
2022/09/22 08:32:32;;;;;;;17.13;8.60;;;32.50;36.60;;;;;;4999237;28;20183;-75
2022/09/22 08:34:58;;;;;;;16.60;8.90;;;32.50;38.50;;;;;;4966420;28;20263;-74
2022/09/22 08:37:26;;;;;;;14.40;7.10;;;33.10;33.70;;;;;;4980733;28;20318;-74
2022/09/22 08:39:52;;;;;;;16.00;7.63;;;32.80;31.20;;;;;;4995237;28;20214;-73
2022/09/22 08:42:19;;;;;;;9.95;6.05;;;31.70;29.70;;;;;;4989832;28;20658;-75
2022/09/22 08:45:16;;;;;;;7.18;4.70;;;31.90;32.20;;;;;;5004458;28;20183;-73
2022/09/22 08:53:47;;;;;;;9.50;4.78;;;32.40;27.20;;;;;;4975831;28;20287;-75
2022/09/22 08:56:18;;;;;;;8.75;5.53;;;32.40;26.80;;;;;;4966455;28;20211;-79
2022/09/22 08:59:13;;;;;;;10.15;5.13;;;32.80;27.70;;;;;;4980241;28;20183;-78
2022/09/22 09:02:19;;;;;;;14.05;5.57;;;33.00;26.10;;;;;;5008349;28;20591;-81
2022/09/22 09:04:58;;;;;;;5.95;4.07;;;32.30;25.30;;;;;;5013034;28;20186;-77
2022/09/22 09:07:29;;;;;;;8.93;5.18;;;32.20;26.10;;;;;;4988931;28;20531;-77
2022/09/22 09:10:15;;;;;;;6.50;4.35;;;32.10;25.90;;;;;;5001476;28;20190;-77
2022/09/22 09:13:01;;;;;;;7.95;4.80;;;31.90;25.80;;;;;;4958768;28;20710;-74
2022/09/22 09:15:41;;;;;;;4.20;3.67;;;31.70;25.10;;;;;;4919443;29;20615;-75
2022/09/22 09:18:19;;;;;;;8.25;4.18;;;32.50;24.10;;;;;;4920876;29;20340;-76
2022/09/22 09:20:47;;;;;;;9.93;4.50;;;31.40;23.40;;;;;;4910975;29;20312;-75
2022/09/22 09:23:17;;;;;;;6.93;4.03;;;31.90;23.30;;;;;;4914761;29;20201;-75
2022/09/22 09:25:48;;;;;;;5.10;3.97;;;31.90;23.80;;;;;;4916301;29;20197;-74
2022/09/22 09:28:22;;;;;;;5.57;3.28;;;32.40;38.20;;;;;;4919221;29;20289;-73
2022/09/22 09:30:50;;;;;;;6.10;4.15;;;31.20;19.40;;;;;;4915036;29;20232;-76
2022/09/22 09:33:28;;;;;;;6.40;3.00;;;30.80;37.50;;;;;;4906923;29;20205;-77
2022/09/22 09:35:54;;;;;;;5.43;3.47;;;31.20;24.30;;;;;;4910497;29;20213;-76
2022/09/22 09:38:28;;;;;;;8.48;5.82;;;31.20;22.10;;;;;;4912274;29;20895;-75
2022/09/22 09:41:01;;;;;;;4.78;2.85;;;31.80;22.40;;;;;;4910234;29;20898;-74
2022/09/22 09:43:27;;;;;;;6.13;2.80;;;30.80;22.30;;;;;;4931050;29;20189;-77
2022/09/22 09:46:02;;;;;;;4.90;4.45;;;31.30;20.70;;;;;;4933794;29;20197;-74
2022/09/22 09:48:40;;;;;;;4.45;3.10;;;31.50;21.00;;;;;;4939407;29;20195;-75
2022/09/22 09:51:11;;;;;;;6.20;3.30;;;31.70;19.70;;;;;;4890775;28;20980;-73
2022/09/22 09:53:41;;;;;;;4.28;2.67;;;31.10;17.30;;;;;;4964350;28;20212;-75
2022/09/22 09:56:35;;;;;;;3.25;2.30;;;30.80;21.60;;;;;;4971989;28;20266;-74
2022/09/22 10:01:54;;;;;;;2.10;2.00;;;26.60;39.80;;;;;;4969038;28;20191;-75
2022/09/22 10:04:36;;;;;;;4.70;2.35;;;27.40;66.10;;;;;;4969425;28;20192;-76
2022/09/22 10:07:16;;;;;;;5.45;3.97;;;28.50;41.70;;;;;;4972355;28;20172;-78
2022/09/22 10:09:43;;;;;;;4.10;2.85;;;28.80;37.40;;;;;;4967485;28;20181;-76
2022/09/22 10:12:25;;;;;;;2.47;1.98;;;29.40;36.10;;;;;;4966386;28;20180;-74
2022/09/22 10:14:53;;;;;;;4.03;2.20;;;28.40;32.40;;;;;;4976312;28;20183;-74
2022/09/22 10:17:22;;;;;;;2.95;2.47;;;28.90;36.20;;;;;;5029956;28;20227;-76
2022/09/22 10:19:49;;;;;;;2.42;1.90;;;29.50;34.90;;;;;;4991044;28;20262;-75
2022/09/22 10:22:24;;;;;;;1.95;1.80;;;28.80;25.50;;;;;;4968802;28;20496;-77
2022/09/22 10:24:57;;;;;;;2.35;1.67;;;26.60;32.70;;;;;;4969526;28;20171;-74
2022/09/22 10:27:24;;;;;;;2.70;1.70;;;27.00;59.80;;;;;;4982465;28;20180;-72
2022/09/22 10:30:09;;;;;;;1.60;1.40;;;27.10;42.60;;;;;;5011062;28;20172;-73
2022/09/22 10:32:36;;;;;;;1.30;0.93;;;27.50;35.00;;;;;;4987599;28;20179;-72
2022/09/22 10:35:28;;;;;;;2.13;1.30;;;26.80;32.70;;;;;;5020018;28;20188;-72
2022/09/22 10:38:12;;;;;;;2.72;1.65;;;27.20;31.70;;;;;;4985483;28;20306;-73
2022/09/22 10:40:41;;;;;;;2.55;1.55;;;27.60;35.60;;;;;;5025099;28;20202;-74
2022/09/22 10:43:36;;;;;;;2.22;1.63;;;28.00;40.00;;;;;;5023628;28;20187;-72
2022/09/22 10:46:31;;;;;;;1.98;1.65;;;28.10;35.00;;;;;;4979291;28;20618;-72
2022/09/22 10:49:29;;;;;;;2.85;1.48;;;27.40;38.70;;;;;;4986290;28;20179;-71
2022/09/22 10:52:34;;;;;;;3.50;3.20;;;26.70;41.60;;;;;;4966778;28;20172;-73
2022/09/22 10:55:28;;;;;;;2.90;1.80;;;26.80;45.80;;;;;;5003372;28;20195;-76
2022/09/22 10:58:02;;;;;;;3.60;2.03;;;26.30;48.70;;;;;;4992735;28;20257;-75
2022/09/22 11:00:35;;;;;;;2.38;2.10;;;26.40;57.40;;;;;;5004516;28;20190;-74
2022/09/22 11:03:15;;;;;;;3.58;1.90;;;26.60;54.00;;;;;;4974810;28;20294;-77
2022/09/22 11:12:17;;;;;;;4.75;2.20;;;27.30;65.70;;;;;;4985202;28;20180;-74
2022/09/22 11:15:10;;;;;;;3.28;1.70;;;27.70;52.10;;;;;;5049361;28;20596;-72
2022/09/22 11:17:42;;;;;;;2.53;1.45;;;26.20;54.60;;;;;;4995855;28;20278;-73
2022/09/22 11:20:24;;;;;;;1.75;1.50;;;26.30;54.50;;;;;;5054497;28;20175;-73
2022/09/22 11:23:20;;;;;;;1.90;1.42;;;26.20;54.50;;;;;;5047340;28;20199;-72
2022/09/22 11:26:27;;;;;;;2.28;1.70;;;25.30;52.60;;;;;;5031306;28;20208;-73
2022/09/22 11:29:05;;;;;;;2.22;1.63;;;25.40;69.70;;;;;;4985540;28;20267;-73
2022/09/22 11:31:46;;;;;;;1.85;1.42;;;26.00;69.50;;;;;;5001604;28;20185;-76
2022/09/22 11:34:32;;;;;;;2.55;1.40;;;25.90;63.70;;;;;;4964747;28;20215;-75
2022/09/22 11:37:00;;;;;;;1.63;1.33;;;25.40;63.10;;;;;;4996671;28;20216;-74
2022/09/22 11:39:52;;;;;;;1.88;1.30;;;25.40;57.80;;;;;;5035325;28;20209;-73
2022/09/22 11:42:28;;;;;;;1.48;1.20;;;25.20;54.80;;;;;;4983432;28;20184;-76
2022/09/22 11:45:20;;;;;;;1.63;1.40;;;25.20;56.70;;;;;;4991744;28;20251;-72
2022/09/22 11:48:04;;;;;;;2.10;1.40;;;25.40;58.20;;;;;;5016663;28;20507;-75
2022/09/22 11:50:41;;;;;;;2.45;1.55;;;24.10;63.30;;;;;;5030134;28;20181;-74
2022/09/22 11:53:09;;;;;;;5.18;1.58;;;23.10;95.50;;;;;;4983330;28;20197;-75
2022/09/22 11:56:00;;;;;;;2.97;1.30;;;22.70;99.90;;;;;;5033097;28;20188;-73
2022/09/22 11:58:28;;;;;;;1.42;1.10;;;22.80;99.90;;;;;;5001565;28;20181;-73
2022/09/22 12:01:13;;;;;;;2.53;1.27;;;22.60;99.90;;;;;;5000552;28;20211;-74
2022/09/22 12:03:47;;;;;;;2.45;1.40;;;22.70;99.90;;;;;;5039807;28;20185;-74
2022/09/22 12:06:20;;;;;;;1.50;1.40;;;22.60;99.90;;;;;;5003279;28;20206;-74
2022/09/22 12:09:06;;;;;;;1.38;1.20;;;22.60;99.90;;;;;;5069967;28;20266;-72
2022/09/22 12:11:34;;;;;;;2.05;1.33;;;23.20;99.90;;;;;;5000113;28;20182;-75
2022/09/22 12:14:01;;;;;;;2.88;2.13;;;23.40;99.90;;;;;;4989237;28;20175;-75
2022/09/22 12:16:30;;;;;;;5.72;1.80;;;22.90;99.90;;;;;;4999922;28;20203;-75
2022/09/22 12:19:02;;;;;;;3.97;1.60;;;22.50;99.90;;;;;;5016247;28;20172;-74
2022/09/22 12:21:44;;;;;;;5.53;2.03;;;22.10;99.90;;;;;;5042859;28;20207;-74
2022/09/22 12:24:11;;;;;;;1.80;1.65;;;21.70;99.90;;;;;;5029987;28;20167;-74
2022/09/22 12:26:43;;;;;;;2.15;1.70;;;21.10;99.90;;;;;;5021510;28;20192;-75
2022/09/22 12:29:17;;;;;;;2.40;2.20;;;20.90;99.90;;;;;;4966945;28;20244;-72
2022/09/22 12:31:49;;;;;;;3.03;1.92;;;20.50;99.90;;;;;;4972293;28;20179;-74
2022/09/22 12:34:19;;;;;;;2.03;1.80;;;20.40;99.90;;;;;;5023524;28;20196;-72
2022/09/22 12:36:46;;;;;;;2.97;1.60;;;20.10;99.90;;;;;;4983955;28;20583;-74
2022/09/22 12:39:23;;;;;;;2.20;1.77;;;19.90;99.90;;;;;;4967059;28;20195;-73
2022/09/22 12:41:51;;;;;;;3.80;1.92;;;19.90;99.90;;;;;;4966048;28;20221;-71
2022/09/22 12:44:44;;;;;;;1.83;1.67;;;19.80;99.90;;;;;;4972914;28;20179;-72
2022/09/22 12:47:29;;;;;;;2.50;1.40;;;19.80;99.90;;;;;;4967883;28;20690;-72
2022/09/22 12:49:59;;;;;;;2.42;1.77;;;19.60;1.00;;;;;;4975651;28;20291;-71
2022/09/22 12:52:40;;;;;;;1.70;1.45;;;19.60;1.00;;;;;;4990919;28;20276;-73
2022/09/22 12:55:27;;;;;;;3.03;1.50;;;19.70;1.00;;;;;;4994360;28;20215;-72
2022/09/22 12:57:54;;;;;;;4.32;2.63;;;19.80;99.90;;;;;;4968291;28;20219;-73
2022/09/22 13:00:39;;;;;;;2.08;1.88;;;19.70;1.00;;;;;;4971289;28;20187;-72
2022/09/22 13:03:23;;;;;;;3.70;2.25;;;19.90;99.90;;;;;;5013455;28;20180;-71
2022/09/22 13:05:55;;;;;;;3.38;1.70;;;20.20;99.90;;;;;;4998221;28;20221;-70
2022/09/22 13:08:28;;;;;;;2.75;2.50;;;20.20;99.90;;;;;;4968300;28;20175;-70
2022/09/22 13:11:00;;;;;;;2.25;1.48;;;20.10;99.90;;;;;;4968943;28;20172;-70
2022/09/22 13:13:28;;;;;;;1.23;1.13;;;20.30;99.90;;;;;;4981103;28;20225;-70
2022/09/22 13:16:13;;;;;;;1.45;1.30;;;20.30;99.90;;;;;;4979403;28;20187;-71
2022/09/22 13:18:51;;;;;;;1.45;1.33;;;20.40;99.90;;;;;;5030167;28;20647;-70
2022/09/22 13:21:22;;;;;;;1.77;1.30;;;20.30;99.90;;;;;;4970856;28;20188;-71